Time;durP1;ratioP1;P1;durP2;ratioP2;P2;SDS_P1;SDS_P2;PMS_P1;PMS_P2;Temp;Humidity;BMP_temperature;BMP_pressure;BME280_temperature;BME280_humidity;BME280_pressure;Samples;Min_cycle;Max_cycle;Signal;HPM_P1;HPM_P2
2023/09/22 00:00:41;;;;;;;;;;;;;;;-144.99;100.00;52293.19;5008073;28;20371;-61
2023/09/22 00:03:08;;;;;;;;;;;;;;;-144.99;100.00;52311.53;5007036;28;20155;-60
2023/09/22 00:05:36;;;;;;;;;;;;;;;-144.99;100.00;52321.72;5004566;28;19972;-60
2023/09/22 00:08:03;;;;;;;;;;;;;;;-144.99;100.00;52305.41;5001287;28;19941;-59
2023/09/22 00:10:30;;;;;;;;;;;;;;;-144.99;100.00;52305.41;5005417;28;19959;-60
2023/09/22 00:12:56;;;;;;;;;;;;;;;-144.99;100.00;52313.56;5013027;28;20041;-60
2023/09/22 00:15:24;;;;;;;;;;;;;;;-144.99;100.00;52301.34;5009304;28;19996;-60
2023/09/22 00:17:51;;;;;;;;;;;;;;;-144.99;100.00;52325.81;5007506;28;20046;-60
2023/09/22 00:20:18;;;;;;;;;;;;;;;-144.99;100.00;52305.41;5004606;28;20151;-61
2023/09/22 00:22:44;;;;;;;;;;;;;;;-144.99;100.00;52268.72;5000970;28;19947;-62
2023/09/22 00:25:12;;;;;;;;;;;;;;;-144.99;100.00;52309.50;5007062;28;20359;-62
2023/09/22 00:27:38;;;;;;;;;;;;;;;-144.99;100.00;52350.25;5007802;28;19947;-61
2023/09/22 00:30:08;;;;;;;;;;;;;;;-144.99;100.00;52329.88;5009060;28;20133;-60
2023/09/22 00:32:36;;;;;;;;;;;;;;;-144.99;100.00;52333.94;5005968;28;20376;-62
2023/09/22 00:35:03;;;;;;;;;;;;;;;-144.99;100.00;52276.88;5016645;28;19947;-61
2023/09/22 00:37:30;;;;;;;;;;;;;;;-144.99;100.00;52319.69;5005452;28;19943;-61
2023/09/22 00:39:57;;;;;;;;;;;;;;;-144.99;100.00;52297.25;5008577;28;19962;-62
2023/09/22 00:42:23;;;;;;;;;;;;;;;-144.99;100.00;52293.19;5004075;28;19941;-63
2023/09/22 00:44:50;;;;;;;;;;;;;;;-144.99;100.00;52285.03;5012253;28;20008;-61
2023/09/22 00:47:17;;;;;;;;;;;;;;;-144.99;100.00;52293.19;5007024;28;20448;-61
2023/09/22 00:49:47;;;;;;;;;;;;;;;-144.99;100.00;52338.03;5008454;28;20510;-63
2023/09/22 00:52:14;;;;;;;;;;;;;;;-144.99;100.00;52354.34;5007565;28;20005;-63
2023/09/22 00:54:41;;;;;;;;;;;;;;;-144.99;100.00;52329.88;5010078;28;19938;-62
2023/09/22 00:57:08;;;;;;;;;;;;;;;-144.99;100.00;52289.13;5015039;28;19986;-62
2023/09/22 00:59:35;;;;;;;;;;;;;;;-144.99;100.00;52305.41;5005702;28;19964;-62
2023/09/22 01:02:01;;;;;;;;;;;;;;;-144.99;100.00;52317.66;4997847;28;19999;-61
2023/09/22 01:04:29;;;;;;;;;;;;;;;-144.99;100.00;52297.25;5000058;28;20017;-61
2023/09/22 01:06:57;;;;;;;;;;;;;;;-144.99;100.00;52309.50;5009708;28;20350;-62
2023/09/22 01:09:23;;;;;;;;;;;;;;;-144.99;100.00;52333.94;5000456;28;20424;-60
2023/09/22 01:11:50;;;;;;;;;;;;;;;-144.99;100.00;52329.88;5002907;28;20182;-59
2023/09/22 01:14:16;;;;;;;;;;;;;;;-144.99;100.00;52329.88;5008306;28;20053;-60
2023/09/22 01:16:42;;;;;;;;;;;;;;;-144.99;100.00;52329.88;5006937;28;20037;-60
2023/09/22 01:19:16;;;;;;;;;;;;;;;-144.99;100.00;52289.13;5010354;28;20063;-60
2023/09/22 01:21:44;;;;;;;;;;;;;;;-144.99;100.00;52313.56;4998979;28;20455;-60
2023/09/22 01:24:10;;;;;;;;;;;;;;;-144.99;100.00;52297.25;5008245;28;19987;-62
2023/09/22 01:26:38;;;;;;;;;;;;;;;-144.99;100.00;52276.88;5011045;28;19973;-61
2023/09/22 01:29:05;;;;;;;;;;;;;;;-144.99;100.00;52301.34;5003884;28;19986;-63
2023/09/22 01:31:32;;;;;;;;;;;;;;;-144.99;100.00;52329.88;5006462;28;20394;-66
2023/09/22 01:33:59;;;;;;;;;;;;;;;-144.99;100.00;52268.72;5002749;28;19998;-67
2023/09/22 01:36:26;;;;;;;;;;;;;;;-144.99;100.00;52303.38;5010091;28;20033;-68
2023/09/22 01:38:54;;;;;;;;;;;;;;;-144.99;100.00;52291.16;5000272;28;20397;-68
2023/09/22 01:41:20;;;;;;;;;;;;;;;-144.99;100.00;52313.56;5003613;28;20060;-66
2023/09/22 01:43:47;;;;;;;;;;;;;;;-144.99;100.00;52313.56;5008867;28;19940;-67
2023/09/22 01:46:13;;;;;;;;;;;;;;;-144.99;100.00;52307.47;5011695;28;19997;-67
2023/09/22 01:48:40;;;;;;;;;;;;;;;-144.99;100.00;52327.84;5003312;28;20044;-67
2023/09/22 01:51:06;;;;;;;;;;;;;;;-144.99;100.00;52303.38;5000913;28;20353;-65
2023/09/22 01:53:33;;;;;;;;;;;;;;;-144.99;100.00;52329.88;5005115;28;20441;-66
2023/09/22 01:56:00;;;;;;;;;;;;;;;-144.99;100.00;52289.13;5017162;28;20039;-66
2023/09/22 01:58:27;;;;;;;;;;;;;;;-144.99;100.00;52297.25;5002392;28;19997;-66
2023/09/22 02:00:54;;;;;;;;;;;;;;;-144.99;100.00;52289.13;4995175;28;20011;-66
2023/09/22 02:03:20;;;;;;;;;;;;;;;-144.99;100.00;52350.25;5002700;28;19948;-66
2023/09/22 02:05:47;;;;;;;;;;;;;;;-144.99;100.00;52285.03;5009488;28;19942;-66
2023/09/22 02:08:13;;;;;;;;;;;;;;;-144.99;100.00;52270.78;5004484;28;20407;-66
2023/09/22 02:10:40;;;;;;;;;;;;;;;-144.99;100.00;52289.13;5007926;28;20058;-65
2023/09/22 02:13:09;;;;;;;;;;;;;;;-144.99;100.00;52301.34;5007821;28;20042;-67
2023/09/22 02:15:36;;;;;;;;;;;;;;;-144.99;100.00;52354.34;5005284;28;19986;-66
2023/09/22 02:18:03;;;;;;;;;;;;;;;-144.99;100.00;52313.56;5007567;28;20395;-66
2023/09/22 02:20:30;;;;;;;;;;;;;;;-144.99;100.00;52301.34;5002990;28;19966;-66
2023/09/22 02:22:57;;;;;;;;;;;;;;;-144.99;100.00;52297.25;4999174;28;20287;-66
2023/09/22 02:25:23;;;;;;;;;;;;;;;-144.99;100.00;52309.50;5007101;28;20402;-66
2023/09/22 02:27:51;;;;;;;;;;;;;;;-144.99;100.00;52307.47;5007703;28;19942;-66
2023/09/22 02:30:19;;;;;;;;;;;;;;;-144.99;100.00;52340.06;5008777;28;19967;-66
2023/09/22 02:32:47;;;;;;;;;;;;;;;-144.99;100.00;52313.56;5003111;28;20065;-66
2023/09/22 02:35:14;;;;;;;;;;;;;;;-144.99;100.00;52338.03;5007233;28;19947;-66
2023/09/22 02:37:41;;;;;;;;;;;;;;;-144.99;100.00;52321.72;5008542;28;20039;-66
2023/09/22 02:40:09;;;;;;;;;;;;;;;-144.99;100.00;52325.81;5011114;28;19960;-67
2023/09/22 02:42:36;;;;;;;;;;;;;;;-144.99;100.00;52356.38;5010365;28;19962;-67
2023/09/22 02:45:03;;;;;;;;;;;;;;;-144.99;100.00;52313.56;5008529;28;19938;-67
2023/09/22 02:47:31;;;;;;;;;;;;;;;-144.99;100.00;52327.84;5007253;28;19947;-68
2023/09/22 02:49:57;;;;;;;;;;;;;;;-144.99;100.00;52311.53;5011803;28;19956;-68
2023/09/22 02:52:24;;;;;;;;;;;;;;;-144.99;100.00;52303.38;5011282;28;19944;-68
2023/09/22 02:54:52;;;;;;;;;;;;;;;-144.99;100.00;52336.00;5011634;28;20297;-68
2023/09/22 02:57:19;;;;;;;;;;;;;;;-144.99;100.00;52325.81;5006778;28;20020;-68
2023/09/22 02:59:45;;;;;;;;;;;;;;;-144.99;100.00;52336.00;5003879;28;20084;-63
2023/09/22 03:02:13;;;;;;;;;;;;;;;-144.99;100.00;52321.72;5013252;28;20500;-63
2023/09/22 03:04:41;;;;;;;;;;;;;;;-144.99;100.00;52358.41;5004262;28;19941;-64
2023/09/22 03:07:08;;;;;;;;;;;;;;;-144.99;100.00;52313.56;5005997;28;19983;-64
2023/09/22 03:09:35;;;;;;;;;;;;;;;-144.99;100.00;52368.59;5001427;28;20024;-64
2023/09/22 03:12:02;;;;;;;;;;;;;;;-144.99;100.00;52338.03;5007162;28;19977;-65
2023/09/22 03:14:28;;;;;;;;;;;;;;;-144.99;100.00;52305.41;5009839;28;20034;-64
2023/09/22 03:16:55;;;;;;;;;;;;;;;-144.99;100.00;52317.66;5010064;28;20044;-64
2023/09/22 03:19:21;;;;;;;;;;;;;;;-144.99;100.00;52364.53;5004148;28;20020;-65
2023/09/22 03:21:49;;;;;;;;;;;;;;;-144.99;100.00;52329.88;5014441;28;20019;-66
2023/09/22 03:24:15;;;;;;;;;;;;;;;-144.99;100.00;52301.34;5006245;28;20414;-66
2023/09/22 03:26:42;;;;;;;;;;;;;;;-144.99;100.00;52317.66;5006757;28;20492;-63
2023/09/22 03:29:08;;;;;;;;;;;;;;;-144.99;100.00;52338.03;5001599;28;20003;-63
2023/09/22 03:31:36;;;;;;;;;;;;;;;-144.99;100.00;52317.66;5011062;28;19961;-64
2023/09/22 03:34:03;;;;;;;;;;;;;;;-144.99;100.00;52323.75;5004498;28;19968;-64
2023/09/22 03:36:31;;;;;;;;;;;;;;;-144.99;100.00;52356.38;5006092;28;20414;-63
2023/09/22 03:38:59;;;;;;;;;;;;;;;-144.99;100.00;52362.50;5009697;28;20041;-63
2023/09/22 03:41:28;;;;;;;;;;;;;;;-144.99;100.00;52358.41;5009556;28;19954;-64
2023/09/22 03:43:55;;;;;;;;;;;;;;;-144.99;100.00;52297.25;5014858;28;19945;-63
2023/09/22 03:46:22;;;;;;;;;;;;;;;-144.99;100.00;52374.72;5010005;28;19942;-66
2023/09/22 03:48:49;;;;;;;;;;;;;;;-144.99;100.00;52346.19;5008956;28;20037;-65
2023/09/22 03:51:15;;;;;;;;;;;;;;;-144.99;100.00;52329.88;5001108;28;19958;-65
2023/09/22 03:53:42;;;;;;;;;;;;;;;-144.99;100.00;52333.94;5006600;28;20058;-65
2023/09/22 03:56:10;;;;;;;;;;;;;;;-144.99;100.00;52329.88;5008298;28;20041;-66
2023/09/22 03:58:36;;;;;;;;;;;;;;;-144.99;100.00;52344.16;4998213;28;19945;-67
2023/09/22 04:01:06;;;;;;;;;;;;;;;-144.99;100.00;52350.25;4999403;28;20009;-66
2023/09/22 04:03:32;;;;;;;;;;;;;;;-144.99;100.00;52366.56;5006312;28;20372;-63
2023/09/22 04:05:59;;;;;;;;;;;;;;;-144.99;100.00;52338.03;5006932;28;20036;-64
2023/09/22 04:08:25;;;;;;;;;;;;;;;-144.99;100.00;52350.25;5005228;28;19943;-63
2023/09/22 04:10:52;;;;;;;;;;;;;;;-144.99;100.00;52327.84;5006948;28;19959;-64
2023/09/22 04:13:20;;;;;;;;;;;;;;;-144.99;100.00;52338.03;5000872;28;20077;-63
2023/09/22 04:15:46;;;;;;;;;;;;;;;-144.99;100.00;52325.81;5006345;28;20387;-64
2023/09/22 04:18:13;;;;;;;;;;;;;;;-144.99;100.00;52372.69;5006934;28;20283;-71
2023/09/22 04:20:44;;;;;;;;;;;;;;;-144.99;100.00;52354.34;5006284;28;19954;-66
2023/09/22 04:23:10;;;;;;;;;;;;;;;-144.99;100.00;52350.25;4999912;28;20042;-64
2023/09/22 04:25:37;;;;;;;;;;;;;;;-144.99;100.00;52329.88;5006606;28;20035;-62
2023/09/22 04:28:09;;;;;;;;;;;;;;;-144.99;100.00;52338.03;5003770;28;19958;-65
2023/09/22 04:30:38;;;;;;;;;;;;;;;-144.99;100.00;52370.63;5005744;28;20426;-66
2023/09/22 04:33:05;;;;;;;;;;;;;;;-144.99;100.00;52358.41;5007380;28;20043;-65
2023/09/22 04:35:32;;;;;;;;;;;;;;;-144.99;100.00;52333.94;5006894;28;20008;-65
2023/09/22 04:37:59;;;;;;;;;;;;;;;-144.99;100.00;52354.34;5002152;28;20002;-66
2023/09/22 04:40:29;;;;;;;;;;;;;;;-144.99;100.00;52358.41;5007390;28;20056;-66
2023/09/22 04:42:55;;;;;;;;;;;;;;;-144.99;100.00;52333.94;5000686;28;20057;-66
2023/09/22 04:45:23;;;;;;;;;;;;;;;-144.99;100.00;52344.16;5002484;28;19975;-66
2023/09/22 04:47:52;;;;;;;;;;;;;;;-144.99;100.00;52317.66;5007271;28;19998;-65
2023/09/22 04:50:19;;;;;;;;;;;;;;;-144.99;100.00;52362.50;5010452;28;19975;-66
2023/09/22 04:52:46;;;;;;;;;;;;;;;-144.99;100.00;52344.16;5008580;28;19942;-65
2023/09/22 04:55:13;;;;;;;;;;;;;;;-144.99;100.00;52329.88;5001352;28;20041;-66
2023/09/22 04:57:40;;;;;;;;;;;;;;;-144.99;100.00;52350.25;5004521;28;19941;-65
2023/09/22 05:00:15;;;;;;;;;;;;;;;-144.99;100.00;52325.81;4995846;28;20006;-65
2023/09/22 05:02:42;;;;;;;;;;;;;;;-144.99;100.00;52313.56;5003341;28;21478;-65
2023/09/22 05:05:10;;;;;;;;;;;;;;;-144.99;100.00;52378.78;4999226;28;20027;-65
2023/09/22 05:07:37;;;;;;;;;;;;;;;-144.99;100.00;52321.72;5020931;22;20081;-62
2023/09/22 05:10:04;;;;;;;;;;;;;;;-144.99;100.00;52329.88;5008612;28;20036;-62
2023/09/22 05:12:30;;;;;;;;;;;;;;;-144.99;100.00;52333.94;5008447;28;20361;-70
2023/09/22 05:14:58;;;;;;;;;;;;;;;-144.99;100.00;52342.09;5004958;28;20173;-71
2023/09/22 05:17:24;;;;;;;;;;;;;;;-144.99;100.00;52374.72;5007672;28;19945;-72
2023/09/22 05:19:51;;;;;;;;;;;;;;;-144.99;100.00;52370.63;5002230;28;19963;-72
2023/09/22 05:22:20;;;;;;;;;;;;;;;-144.99;100.00;52315.59;4997609;28;19984;-73
2023/09/22 05:24:47;;;;;;;;;;;;;;;-144.99;100.00;52374.72;5006281;28;20434;-70
2023/09/22 05:27:14;;;;;;;;;;;;;;;-144.99;100.00;52333.94;5004338;28;20422;-73
2023/09/22 05:29:41;;;;;;;;;;;;;;;-144.99;100.00;52346.19;4653893;28;10000036;-72
2023/09/22 05:32:08;;;;;;;;;;;;;;;-144.99;100.00;52358.41;4997260;28;20475;-70
2023/09/22 05:34:34;;;;;;;;;;;;;;;-144.99;100.00;52338.03;5002536;28;19950;-71
2023/09/22 05:37:01;;;;;;;;;;;;;;;-144.99;100.00;52333.94;5002509;28;19947;-72
2023/09/22 05:39:29;;;;;;;;;;;;;;;-144.99;100.00;52362.50;5002814;28;19960;-71
2023/09/22 05:41:56;;;;;;;;;;;;;;;-144.99;100.00;52338.03;5005629;28;19999;-70
2023/09/22 05:44:22;;;;;;;;;;;;;;;-144.99;100.00;52342.09;4997083;28;19940;-74
2023/09/22 05:46:50;;;;;;;;;;;;;;;-144.99;100.00;52327.84;5004569;28;20320;-72
2023/09/22 05:49:17;;;;;;;;;;;;;;;-144.99;100.00;52325.81;5003194;28;19969;-74
2023/09/22 05:51:44;;;;;;;;;;;;;;;-144.99;100.00;52340.06;5002444;28;20002;-71
2023/09/22 05:54:10;;;;;;;;;;;;;;;-144.99;100.00;52325.81;5005391;28;20002;-71
2023/09/22 05:56:40;;;;;;;;;;;;;;;-144.99;100.00;52358.41;5005421;28;19987;-70
2023/09/22 05:59:06;;;;;;;;;;;;;;;-144.99;100.00;52346.19;4997713;28;19959;-70
2023/09/22 06:01:37;;;;;;;;;;;;;;;-144.99;100.00;52362.50;5004538;28;20035;-70
2023/09/22 06:04:05;;;;;;;;;;;;;;;-144.99;100.00;52313.56;4997406;28;20003;-70
2023/09/22 06:06:32;;;;;;;;;;;;;;;-144.99;100.00;52329.88;5008343;28;19948;-69
2023/09/22 06:08:58;;;;;;;;;;;;;;;-144.99;100.00;52338.03;4997946;28;20017;-72
2023/09/22 06:11:25;;;;;;;;;;;;;;;-144.99;100.00;52352.28;5003494;28;19998;-74
2023/09/22 06:13:53;;;;;;;;;;;;;;;-144.99;100.00;52366.56;5006811;28;20044;-72
2023/09/22 06:16:20;;;;;;;;;;;;;;;-144.99;100.00;52325.81;5009085;28;20464;-73
2023/09/22 06:18:46;;;;;;;;;;;;;;;-144.99;100.00;52338.03;5008882;28;20278;-72
2023/09/22 06:21:13;;;;;;;;;;;;;;;-144.99;100.00;52311.53;5011498;28;20289;-71
2023/09/22 06:23:39;;;;;;;;;;;;;;;-144.99;100.00;52313.56;5010129;28;20051;-72
2023/09/22 06:26:08;;;;;;;;;;;;;;;-144.99;100.00;52309.50;5010173;28;19943;-72
2023/09/22 06:28:35;;;;;;;;;;;;;;;-144.99;100.00;52360.44;5008860;28;19949;-71
2023/09/22 06:31:03;;;;;;;;;;;;;;;-144.99;100.00;52303.38;5009258;28;19970;-73
2023/09/22 06:33:30;;;;;;;;;;;;;;;-144.99;100.00;52333.94;5005862;28;20251;-72
2023/09/22 06:35:57;;;;;;;;;;;;;;;-144.99;100.00;52340.06;5007592;28;20352;-71
2023/09/22 06:38:24;;;;;;;;;;;;;;;-144.99;100.00;52317.66;5006507;28;20065;-71
2023/09/22 06:40:54;;;;;;;;;;;;;;;-144.99;100.00;52338.03;5007851;28;20484;-72
2023/09/22 06:43:23;;;;;;;;;;;;;;;-144.99;100.00;52352.28;5008853;28;19965;-72
2023/09/22 06:45:51;;;;;;;;;;;;;;;-144.99;100.00;52268.72;5004087;28;20391;-72
2023/09/22 06:48:22;;;;;;;;;;;;;;;-144.99;100.00;52325.81;5007556;28;19952;-73
2023/09/22 06:50:51;;;;;;;;;;;;;;;-144.99;100.00;52305.41;5000330;28;19963;-72
2023/09/22 06:53:17;;;;;;;;;;;;;;;-144.99;100.00;52344.16;5007021;28;19944;-71
2023/09/22 06:55:44;;;;;;;;;;;;;;;-144.99;100.00;52342.09;5007949;28;20040;-72
2023/09/22 06:58:10;;;;;;;;;;;;;;;-144.99;100.00;52317.66;5006208;28;20406;-73
2023/09/22 07:00:37;;;;;;;;;;;;;;;-144.99;100.00;52397.13;5002930;28;20034;-70
2023/09/22 07:03:04;;;;;;;;;;;;;;;-144.99;100.00;52327.84;4662541;28;10000507;-72
2023/09/22 07:05:32;;;;;;;;;;;;;;;-144.99;100.00;52342.09;5004714;28;20008;-72
2023/09/22 07:07:58;;;;;;;;;;;;;;;-144.99;100.00;52321.72;5004761;28;19995;-71
2023/09/22 07:10:25;;;;;;;;;;;;;;;-144.99;100.00;52338.03;4999094;28;20018;-72
2023/09/22 07:12:52;;;;;;;;;;;;;;;-144.99;100.00;52354.34;5005965;28;20353;-71
2023/09/22 07:15:18;;;;;;;;;;;;;;;-144.99;100.00;52378.78;5007240;28;20357;-71
2023/09/22 07:17:45;;;;;;;;;;;;;;;-144.99;100.00;52364.53;5006902;28;19990;-71
2023/09/22 07:20:13;;;;;;;;;;;;;;;-144.99;100.00;52297.25;5006131;28;20020;-70
2023/09/22 07:22:42;;;;;;;;;;;;;;;-144.99;100.00;52313.56;5007135;28;20052;-71
2023/09/22 07:25:09;;;;;;;;;;;;;;;-144.99;100.00;52299.31;5007598;28;19953;-71
2023/09/22 07:27:36;;;;;;;;;;;;;;;-144.99;100.00;52311.53;5006927;28;19954;-70
2023/09/22 07:30:02;;;;;;;;;;;;;;;-144.99;100.00;52333.94;5007351;28;19969;-72
2023/09/22 07:32:30;;;;;;;;;;;;;;;-144.99;100.00;52329.88;5008429;28;20045;-73
2023/09/22 07:34:56;;;;;;;;;;;;;;;-144.99;100.00;52370.63;5008319;28;20495;-73
2023/09/22 07:37:24;;;;;;;;;;;;;;;-144.99;100.00;52311.53;5006065;28;20008;-72
2023/09/22 07:39:52;;;;;;;;;;;;;;;-144.99;100.00;52338.03;5006405;28;19956;-72
2023/09/22 07:42:18;;;;;;;;;;;;;;;-144.99;100.00;52297.25;4661862;28;10000081;-73
2023/09/22 07:44:45;;;;;;;;;;;;;;;-144.99;100.00;52313.56;5007773;28;19950;-71
2023/09/22 07:47:13;;;;;;;;;;;;;;;-144.99;100.00;52313.56;5007430;28;20358;-72
2023/09/22 07:49:40;;;;;;;;;;;;;;;-144.99;100.00;52317.66;5006167;28;19956;-71
2023/09/22 07:52:09;;;;;;;;;;;;;;;-144.99;100.00;52317.66;5008328;28;20012;-71
2023/09/22 07:54:35;;;;;;;;;;;;;;;-144.99;100.00;52309.50;5004173;28;20319;-72
2023/09/22 07:57:03;;;;;;;;;;;;;;;-144.99;100.00;52325.81;5007452;28;19977;-72
2023/09/22 07:59:30;;;;;;;;;;;;;;;-144.99;100.00;52301.34;5005036;28;20098;-71
2023/09/22 08:01:59;;;;;;;;;;;;;;;-144.99;100.00;52309.50;5007238;28;19945;-72
2023/09/22 08:04:26;;;;;;;;;;;;;;;-144.99;100.00;52362.50;5007625;28;20040;-71
2023/09/22 08:06:52;;;;;;;;;;;;;;;-144.99;100.00;52309.50;5004766;28;20443;-74
2023/09/22 08:09:19;;;;;;;;;;;;;;;-144.99;100.00;52329.88;5008900;28;20048;-72
2023/09/22 08:11:46;;;;;;;;;;;;;;;-144.99;100.00;52317.66;4995451;28;19943;-73
2023/09/22 08:14:14;;;;;;;;;;;;;;;-144.99;100.00;52301.34;5008478;28;20368;-72
2023/09/22 08:16:41;;;;;;;;;;;;;;;-144.99;100.00;52321.72;5008092;28;20015;-72
2023/09/22 08:19:10;;;;;;;;;;;;;;;-144.99;100.00;52366.56;5006735;28;19965;-72
2023/09/22 08:21:37;;;;;;;;;;;;;;;-144.99;100.00;52333.94;5010119;28;20400;-72
2023/09/22 08:24:04;;;;;;;;;;;;;;;-144.99;100.00;52321.72;5008995;28;20465;-71
2023/09/22 08:26:31;;;;;;;;;;;;;;;-144.99;100.00;52319.69;4998464;28;19990;-72
2023/09/22 08:28:57;;;;;;;;;;;;;;;-144.99;100.00;52293.19;4995730;28;20026;-72
2023/09/22 08:31:27;;;;;;;;;;;;;;;-144.99;100.00;52313.56;5005807;28;19950;-73
2023/09/22 08:33:53;;;;;;;;;;;;;;;-144.99;100.00;52313.56;5007667;28;19951;-72
2023/09/22 08:36:20;;;;;;;;;;;;;;;-144.99;100.00;52297.25;5006855;28;19956;-72
2023/09/22 08:38:46;;;;;;;;;;;;;;;-144.99;100.00;52325.81;5007874;28;20062;-73
2023/09/22 08:41:13;;;;;;;;;;;;;;;-144.99;100.00;52331.91;5008458;28;19947;-74
2023/09/22 08:43:41;;;;;;;;;;;;;;;-144.99;100.00;52278.91;5007029;28;19988;-73
2023/09/22 08:46:07;;;;;;;;;;;;;;;-144.99;100.00;52333.94;5005634;28;20433;-74
2023/09/22 08:48:35;;;;;;;;;;;;;;;-144.99;100.00;52313.56;5005330;28;20075;-72
2023/09/22 08:51:03;;;;;;;;;;;;;;;-144.99;100.00;52317.66;5003057;28;20016;-72
2023/09/22 08:53:32;;;;;;;;;;;;;;;-144.99;99.45;52297.25;5005723;28;19991;-72
2023/09/22 08:55:58;;;;;;;;;;;;;;;-144.99;98.37;52317.66;4998760;28;19943;-72
2023/09/22 08:58:25;;;;;;;;;;;;;;;-144.99;98.30;52309.50;5005681;28;20001;-73
2023/09/22 09:00:53;;;;;;;;;;;;;;;-144.99;97.04;52305.41;5005122;28;19995;-72
2023/09/22 09:03:20;;;;;;;;;;;;;;;-144.99;95.81;52301.34;5003978;28;19970;-72
2023/09/22 09:05:49;;;;;;;;;;;;;;;-144.99;93.50;52301.34;5001574;28;19955;-73
2023/09/22 09:08:16;;;;;;;;;;;;;;;-144.99;92.56;52309.50;5003263;28;20007;-73
2023/09/22 09:10:45;;;;;;;;;;;;;;;-144.99;91.74;52299.31;5003307;28;20447;-73
2023/09/22 09:13:13;;;;;;;;;;;;;;;-144.99;87.93;52285.03;5003086;28;19946;-72
2023/09/22 09:15:45;;;;;;;;;;;;;;;-144.99;86.81;52283.00;5006582;28;20061;-73
2023/09/22 09:18:12;;;;;;;;;;;;;;;-144.99;87.36;52256.50;4998494;28;19966;-75
2023/09/22 09:20:41;;;;;;;;;;;;;;;-144.99;87.35;52280.97;5005585;28;20724;-72
2023/09/22 09:23:13;;;;;;;;;;;;;;;-144.99;86.52;52297.25;5001941;28;19968;-74
2023/09/22 09:25:41;;;;;;;;;;;;;;;-144.99;86.24;52258.53;5003832;28;20765;-72
2023/09/22 09:28:08;;;;;;;;;;;;;;;-144.99;87.56;52325.81;5006681;28;20136;-73
2023/09/22 09:30:34;;;;;;;;;;;;;;;-144.99;87.42;52285.03;5006679;28;20036;-74
2023/09/22 09:33:09;;;;;;;;;;;;;;;-144.99;88.30;52358.41;5006722;28;20002;-72
2023/09/22 09:35:36;;;;;;;;;;;;;;;-144.99;88.78;52366.56;5005004;28;19952;-74
2023/09/22 09:38:03;;;;;;;;;;;;;;;-144.99;89.58;52358.41;5008398;28;19946;-73
2023/09/22 09:40:32;;;;;;;;;;;;;;;-144.99;90.52;52342.09;5012199;28;20344;-74
2023/09/22 09:42:59;;;;;;;;;;;;;;;-144.99;91.11;52340.06;5011490;28;19957;-73
2023/09/22 09:45:29;;;;;;;;;;;;;;;-144.99;90.96;52309.50;5010895;28;20016;-73
2023/09/22 09:47:56;;;;;;;;;;;;;;;-144.99;89.46;52321.72;5011056;28;19942;-72
2023/09/22 09:50:23;;;;;;;;;;;;;;;-144.99;87.56;52293.19;5010740;28;19996;-73
2023/09/22 09:52:55;;;;;;;;;;;;;;;-144.99;86.69;52317.66;5011781;28;19979;-74
2023/09/22 09:55:24;;;;;;;;;;;;;;;-144.99;86.59;52317.66;5004307;28;19942;-73
2023/09/22 09:57:53;;;;;;;;;;;;;;;-144.99;85.36;52325.81;5009684;28;20376;-73
2023/09/22 10:00:20;;;;;;;;;;;;;;;-144.99;84.93;52280.97;5011307;28;19977;-74
2023/09/22 10:02:47;;;;;;;;;;;;;;;-144.99;84.38;52313.56;5008384;28;19973;-74
2023/09/22 10:05:15;;;;;;;;;;;;;;;-144.99;84.81;52319.69;5004824;28;19952;-73
2023/09/22 10:07:43;;;;;;;;;;;;;;;-144.99;82.94;52244.28;5005892;28;20006;-72
2023/09/22 10:10:10;;;;;;;;;;;;;;;-144.99;82.13;52299.31;5010329;28;20090;-74
2023/09/22 10:12:37;;;;;;;;;;;;;;;-144.99;79.79;52256.50;5009423;28;19954;-73
2023/09/22 10:15:07;;;;;;;;;;;;;;;-144.99;78.95;52256.50;4994610;28;20327;-72
2023/09/22 10:17:34;;;;;;;;;;;;;;;-144.99;77.44;52223.88;5006018;28;19979;-72
2023/09/22 10:20:01;;;;;;;;;;;;;;;-144.99;77.23;52258.53;5008551;28;19965;-73
2023/09/22 10:22:29;;;;;;;;;;;;;;;-144.99;78.12;52262.63;5009383;28;19939;-72
2023/09/22 10:25:20;;;;;;;;;;;;;;;-144.99;78.83;52248.34;5010054;28;19962;-72
2023/09/22 10:27:54;;;;;;;;;;;;;;;-144.99;78.15;52219.81;5010407;28;20033;-73
2023/09/22 10:30:22;;;;;;;;;;;;;;;-144.99;76.58;52244.28;5006591;28;19962;-72
2023/09/22 10:32:48;;;;;;;;;;;;;;;-144.99;75.47;52244.28;5011092;28;19948;-73
2023/09/22 10:35:35;;;;;;;;;;;;;;;-144.99;75.22;52268.72;5011908;28;20009;-72
2023/09/22 10:38:02;;;;;;;;;;;;;;;-144.99;73.31;52264.66;4993009;28;19944;-72
2023/09/22 10:40:29;;;;;;;;;;;;;;;-144.99;73.59;52256.50;5007398;28;20089;-72
2023/09/22 10:42:55;;;;;;;;;;;;;;;-144.99;75.22;52195.34;5009235;28;20407;-72
2023/09/22 10:45:25;;;;;;;;;;;;;;;-144.99;76.43;52207.59;4659888;28;10000250;-73
2023/09/22 10:47:52;;;;;;;;;;;;;;;-144.99;76.17;52289.13;5009286;28;20416;-73
2023/09/22 10:50:21;;;;;;;;;;;;;;;-144.99;75.63;52199.44;5007852;28;20172;-74
2023/09/22 10:52:51;;;;;;;;;;;;;;;-144.99;74.92;52236.13;5003502;28;19941;-74
2023/09/22 10:55:34;;;;;;;;;;;;;;;-144.99;73.89;52158.66;5004703;28;19953;-73
2023/09/22 10:58:01;;;;;;;;;;;;;;;-144.99;71.04;52117.91;5010004;28;20029;-74
2023/09/22 11:00:31;;;;;;;;;;;;;;;-144.99;69.31;52134.22;5011385;28;20063;-73
2023/09/22 11:03:04;;;;;;;;;;;;;;;-144.99;69.67;52179.06;5008775;28;19937;-73
2023/09/22 11:05:31;;;;;;;;;;;;;;;-144.99;71.63;52268.72;5005497;28;19957;-74
2023/09/22 11:07:57;;;;;;;;;;;;;;;-144.99;73.86;52317.66;5003698;28;19942;-73
2023/09/22 11:10:24;;;;;;;;;;;;;;;-144.99;74.70;52227.97;5002238;28;20043;-74
2023/09/22 11:12:51;;;;;;;;;;;;;;;-144.99;72.28;52119.94;5006822;28;19998;-73
2023/09/22 11:15:18;;;;;;;;;;;;;;;-144.99;72.15;52289.13;5006701;28;19987;-73
2023/09/22 11:17:47;;;;;;;;;;;;;;;-144.99;72.68;52295.22;5003203;28;19966;-73
2023/09/22 11:20:18;;;;;;;;;;;;;;;-144.99;73.66;52285.03;5003692;28;19963;-75
2023/09/22 11:22:45;;;;;;;;;;;;;;;-144.99;75.65;52260.56;5003159;28;19945;-74
2023/09/22 11:25:12;;;;;;;;;;;;;;;-144.99;75.70;52305.41;4999517;28;20052;-76
2023/09/22 11:27:42;;;;;;;;;;;;;;;-144.99;76.12;52301.34;5000767;28;20968;-73
2023/09/22 11:30:14;;;;;;;;;;;;;;;-144.99;75.41;52264.66;4999637;28;20231;-73
2023/09/22 11:32:41;;;;;;;;;;;;;;;-144.99;75.31;52276.88;4998288;28;20041;-74
2023/09/22 11:35:09;;;;;;;;;;;;;;;-144.99;74.89;52309.50;5000041;28;20057;-72
2023/09/22 11:37:36;;;;;;;;;;;;;;;-144.99;73.93;52187.19;5000600;28;19949;-72
2023/09/22 11:40:13;;;;;;;;;;;;;;;-144.99;72.75;52154.59;5007887;28;20021;-74
2023/09/22 11:42:40;;;;;;;;;;;;;;;-144.99;72.60;52264.66;5005393;28;19944;-73
2023/09/22 11:45:07;;;;;;;;;;;;;;;-144.99;73.45;52268.72;5006439;28;19959;-74
2023/09/22 11:47:34;;;;;;;;;;;;;;;-144.99;73.54;52313.56;5003570;28;19990;-73
2023/09/22 11:50:00;;;;;;;;;;;;;;;-144.99;75.19;52293.19;5005334;28;20009;-73
2023/09/22 11:52:31;;;;;;;;;;;;;;;-144.99;75.85;52289.13;5007084;28;20240;-74
2023/09/22 11:54:58;;;;;;;;;;;;;;;-144.99;76.29;52331.91;5005955;28;20348;-74
2023/09/22 11:57:25;;;;;;;;;;;;;;;-144.99;77.10;52321.72;5007369;28;20488;-74
2023/09/22 11:59:58;;;;;;;;;;;;;;;-144.99;77.56;52305.41;5006512;28;19968;-74
2023/09/22 12:02:26;;;;;;;;;;;;;;;-144.99;77.00;52293.19;5006949;28;20522;-73
2023/09/22 12:04:52;;;;;;;;;;;;;;;-144.99;76.52;52285.03;5007115;28;20352;-73
2023/09/22 12:07:19;;;;;;;;;;;;;;;-144.99;76.28;52280.97;5007571;28;19979;-75
2023/09/22 12:09:47;;;;;;;;;;;;;;;-144.99;73.02;52117.91;5006082;28;19957;-73
2023/09/22 12:12:14;;;;;;;;;;;;;;;-144.99;69.69;52234.09;5006696;28;20029;-73
2023/09/22 12:14:40;;;;;;;;;;;;;;;-144.99;69.14;52227.97;5005413;28;20018;-73
2023/09/22 12:17:07;;;;;;;;;;;;;;;-144.99;69.09;52244.28;5001266;28;20054;-74
2023/09/22 12:19:33;;;;;;;;;;;;;;;-144.99;69.77;52260.56;5005548;28;19963;-75
2023/09/22 12:22:00;;;;;;;;;;;;;;;-144.99;70.13;52219.81;5006535;28;19941;-73